createdAt,value
2019-04-04T00:00:54.703Z,0.00
2019-04-04T00:01:54.642Z,0.00
2019-04-04T00:02:54.701Z,0.00
2019-04-04T00:03:54.689Z,0.00
2019-04-04T00:04:56.508Z,0.00
2019-04-04T00:05:55.085Z,0.00
2019-04-04T00:06:57.711Z,0.00
2019-04-04T00:07:54.682Z,0.00
2019-04-04T00:08:54.784Z,0.00
2019-04-04T00:09:54.685Z,0.00
2019-04-04T00:10:54.690Z,0.00
2019-04-04T00:11:54.628Z,0.00
2019-04-04T00:12:54.688Z,0.00
2019-04-04T00:13:54.685Z,0.00
2019-04-04T00:14:54.678Z,0.00
2019-04-04T00:15:54.622Z,0.00
2019-04-04T00:16:54.634Z,0.00
2019-04-04T00:17:54.690Z,0.00
2019-04-04T00:18:54.689Z,0.00
2019-04-04T00:19:54.637Z,0.00
2019-04-04T00:20:54.692Z,0.00
2019-04-04T00:21:54.581Z,0.00
2019-04-04T00:22:54.695Z,0.00
2019-04-04T00:23:54.696Z,0.00
2019-04-04T00:24:54.637Z,0.00
2019-04-04T00:25:54.630Z,0.00
2019-04-04T00:26:54.588Z,0.00
2019-04-04T00:27:54.591Z,0.00
2019-04-04T00:28:54.684Z,0.00
2019-04-04T00:29:54.620Z,0.00
2019-04-04T00:30:54.564Z,0.00
2019-04-04T00:31:54.632Z,0.00
2019-04-04T00:32:54.689Z,0.00
2019-04-04T00:33:55.846Z,0.00
2019-04-04T00:34:54.715Z,0.00
2019-04-04T00:35:54.674Z,0.00
2019-04-04T00:36:54.645Z,0.00
2019-04-04T00:37:54.718Z,0.00
2019-04-04T00:38:54.708Z,0.00
2019-04-04T00:39:54.647Z,0.00
2019-04-04T00:40:54.638Z,0.00
2019-04-04T00:41:54.670Z,0.00
2019-04-04T00:42:54.717Z,0.00
2019-04-04T00:43:54.640Z,0.00
2019-04-04T00:44:55.818Z,0.00
2019-04-04T00:45:54.638Z,0.00
2019-04-04T00:46:54.636Z,0.00
2019-04-04T00:47:54.705Z,0.00
2019-04-04T00:48:54.630Z,0.00
2019-04-04T00:49:54.630Z,0.00
2019-04-04T00:50:54.713Z,0.00
2019-04-04T00:51:54.645Z,0.00
2019-04-04T00:52:54.657Z,0.00
2019-04-04T00:53:54.640Z,0.00
2019-04-04T00:54:54.707Z,0.00
2019-04-04T00:55:54.641Z,0.00
2019-04-04T00:56:54.640Z,0.00
2019-04-04T00:57:54.644Z,0.00
2019-04-04T00:58:54.771Z,0.00
2019-04-04T00:59:54.709Z,0.00
2019-04-04T01:00:55.421Z,0.00
2019-04-04T01:01:55.084Z,0.00
2019-04-04T01:02:54.771Z,0.00
2019-04-04T01:03:54.726Z,0.00
2019-04-04T01:04:54.679Z,0.00
2019-04-04T01:05:54.669Z,0.00
2019-04-04T01:06:54.657Z,0.00
2019-04-04T01:07:54.654Z,0.00
2019-04-04T01:08:54.751Z,0.00
2019-04-04T01:09:54.669Z,0.00
2019-04-04T01:10:54.685Z,0.00
2019-04-04T01:11:54.717Z,0.00
2019-04-04T01:12:54.757Z,0.00
2019-04-04T01:13:57.618Z,0.00
2019-04-04T01:14:54.733Z,0.00
2019-04-04T01:15:54.761Z,0.00
2019-04-04T01:16:54.740Z,0.00
2019-04-04T01:17:54.665Z,0.00
2019-04-04T01:18:54.678Z,0.00
2019-04-04T01:19:54.739Z,0.00
2019-04-04T01:20:54.737Z,0.00
2019-04-04T01:21:54.750Z,0.00
2019-04-04T01:22:56.083Z,0.00
2019-04-04T01:23:58.110Z,0.00
2019-04-04T01:24:54.670Z,0.00
2019-04-04T01:25:54.729Z,0.00
2019-04-04T01:26:54.742Z,0.00
2019-04-04T01:27:54.736Z,0.00
2019-04-04T01:28:54.664Z,0.00
2019-04-04T01:29:54.663Z,0.00
2019-04-04T01:30:54.731Z,0.00
2019-04-04T01:31:54.672Z,0.00
2019-04-04T01:32:54.672Z,0.00
2019-04-04T01:33:54.735Z,0.00
2019-04-04T01:34:54.682Z,0.00
2019-04-04T01:35:54.772Z,0.00
2019-04-04T01:36:56.426Z,0.00
2019-04-04T01:37:56.080Z,0.00
2019-04-04T01:38:54.756Z,0.00
2019-04-04T01:39:54.765Z,0.00
2019-04-04T01:40:55.196Z,0.00
2019-04-04T01:41:54.710Z,0.00
2019-04-04T01:42:54.681Z,0.00
2019-04-04T01:44:04.523Z,0.00
2019-04-04T01:44:54.697Z,0.00
2019-04-04T01:45:54.684Z,0.00
2019-04-04T01:46:54.753Z,0.00
2019-04-04T01:47:54.757Z,0.00
2019-04-04T01:48:54.748Z,0.00
2019-04-04T01:49:54.762Z,0.00
2019-04-04T01:50:54.762Z,0.00
2019-04-04T01:51:56.844Z,0.00
2019-04-04T01:52:54.771Z,0.00
2019-04-04T01:53:54.785Z,0.00
2019-04-04T01:54:54.735Z,0.00
2019-04-04T01:55:54.743Z,0.00
2019-04-04T01:56:54.752Z,0.00
2019-04-04T01:57:54.658Z,0.00
2019-04-04T01:58:54.659Z,0.00
2019-04-04T01:59:54.741Z,0.00
2019-04-04T02:00:54.745Z,0.00
2019-04-04T02:01:54.680Z,0.00
2019-04-04T02:02:54.710Z,0.00
2019-04-04T02:03:54.685Z,0.00
2019-04-04T02:04:55.864Z,0.00
2019-04-04T02:05:56.170Z,0.00
2019-04-04T02:06:54.702Z,0.00
2019-04-04T02:07:54.705Z,0.00
2019-04-04T02:08:54.785Z,0.00
2019-04-04T02:09:54.717Z,0.00
2019-04-04T02:10:54.669Z,0.00
2019-04-04T02:11:54.714Z,0.00
2019-04-04T02:12:54.783Z,0.00
2019-04-04T02:13:54.719Z,0.00
2019-04-04T02:14:54.667Z,0.00
2019-04-04T02:15:54.750Z,0.00
2019-04-04T02:16:54.650Z,0.00
2019-04-04T02:17:54.764Z,0.00
2019-04-04T02:18:54.666Z,0.00
2019-04-04T02:19:56.328Z,0.00
2019-04-04T02:20:57.517Z,0.00
2019-04-04T02:21:54.668Z,0.00
2019-04-04T02:22:54.734Z,0.00
2019-04-04T02:23:54.709Z,0.00
2019-04-04T02:24:54.725Z,0.00
2019-04-04T02:25:54.798Z,0.00
2019-04-04T02:26:54.784Z,0.00
2019-04-04T02:27:54.728Z,0.00
2019-04-04T02:28:54.795Z,0.00
2019-04-04T02:29:54.787Z,0.00
2019-04-04T02:30:54.750Z,0.00
2019-04-04T02:31:54.802Z,0.00
2019-04-04T02:32:59.325Z,0.00
2019-04-04T02:33:54.731Z,0.00
2019-04-04T02:34:54.739Z,0.00
2019-04-04T02:35:54.709Z,0.00
2019-04-04T02:36:54.764Z,0.00
2019-04-04T02:37:55.554Z,0.00
2019-04-04T02:38:54.649Z,0.00
2019-04-04T02:39:54.718Z,0.00
2019-04-04T02:40:54.710Z,0.00
2019-04-04T02:41:54.780Z,0.00
2019-04-04T02:42:55.555Z,0.00
2019-04-04T02:43:54.712Z,0.00
2019-04-04T02:44:54.797Z,0.00
2019-04-04T02:45:54.786Z,0.00
2019-04-04T02:46:54.813Z,0.00
2019-04-04T02:47:54.835Z,0.00
2019-04-04T02:48:56.245Z,0.00
2019-04-04T02:49:54.811Z,0.00
2019-04-04T02:50:54.742Z,0.00
2019-04-04T02:51:54.771Z,0.00
2019-04-04T02:52:54.777Z,0.00
2019-04-04T02:53:54.757Z,0.00
2019-04-04T02:54:58.233Z,0.00
2019-04-04T02:55:54.801Z,0.00
2019-04-04T02:56:54.825Z,0.00
2019-04-04T02:57:54.727Z,0.00
2019-04-04T02:58:54.735Z,0.00
2019-04-04T02:59:54.810Z,0.00
2019-04-04T03:00:59.269Z,0.00
2019-04-04T03:01:54.799Z,0.00
2019-04-04T03:02:54.733Z,0.00
2019-04-04T03:03:54.800Z,0.00
2019-04-04T03:04:54.809Z,0.00
2019-04-04T03:05:54.735Z,0.00
2019-04-04T03:06:57.320Z,0.00
2019-04-04T03:07:54.735Z,0.00
2019-04-04T03:08:54.737Z,0.00
2019-04-04T03:09:54.873Z,0.00
2019-04-04T03:10:54.734Z,0.00
2019-04-04T03:11:54.857Z,0.00
2019-04-04T03:12:58.195Z,0.00
2019-04-04T03:13:54.810Z,0.00
2019-04-04T03:14:54.815Z,0.00
2019-04-04T03:15:54.825Z,0.00
2019-04-04T03:16:57.024Z,0.00
2019-04-04T03:17:54.840Z,0.00
2019-04-04T03:18:54.751Z,0.00
2019-04-04T03:19:54.832Z,0.00
2019-04-04T03:20:54.763Z,0.00
2019-04-04T03:21:56.047Z,0.00
2019-04-04T03:22:54.828Z,0.00
2019-04-04T03:23:54.776Z,0.00
2019-04-04T03:24:54.827Z,0.00
2019-04-04T03:25:54.835Z,0.00
2019-04-04T03:26:54.763Z,0.00
2019-04-04T03:27:55.467Z,0.00
2019-04-04T03:28:54.797Z,0.00
2019-04-04T03:29:54.782Z,0.00
2019-04-04T03:31:02.263Z,0.00
2019-04-04T03:31:54.838Z,0.00
2019-04-04T03:32:55.503Z,0.00
2019-04-04T03:33:54.842Z,0.00
2019-04-04T03:34:54.779Z,0.00
2019-04-04T03:35:54.833Z,0.00
2019-04-04T03:36:54.759Z,0.00
2019-04-04T03:37:54.826Z,0.00
2019-04-04T03:38:54.760Z,0.00
2019-04-04T03:39:54.760Z,0.00
2019-04-04T03:40:57.825Z,0.00
2019-04-04T03:41:54.758Z,0.00
2019-04-04T03:42:54.830Z,0.00
2019-04-04T03:43:54.780Z,0.00
2019-04-04T03:44:54.844Z,0.00
2019-04-04T03:45:54.761Z,0.00
2019-04-04T03:46:54.766Z,0.00
2019-04-04T03:47:54.833Z,0.00
2019-04-04T03:48:54.905Z,0.00
2019-04-04T03:49:57.598Z,0.00
2019-04-04T03:50:57.123Z,0.00
2019-04-04T03:51:54.761Z,0.00
2019-04-04T03:52:54.775Z,0.00
2019-04-04T03:53:54.848Z,0.00
2019-04-04T03:54:56.220Z,0.00
2019-04-04T03:55:54.835Z,0.00
2019-04-04T03:56:54.771Z,0.00
2019-04-04T03:57:55.317Z,0.00
2019-04-04T03:58:54.768Z,0.00
2019-04-04T03:59:54.843Z,0.00
2019-04-04T04:00:54.777Z,0.00
2019-04-04T04:01:54.854Z,0.00
2019-04-04T04:02:54.787Z,0.00
2019-04-04T04:03:55.605Z,0.00
2019-04-04T04:04:54.770Z,0.00
2019-04-04T04:05:54.751Z,0.00
2019-04-04T04:06:54.734Z,0.00
2019-04-04T04:07:54.737Z,0.00
2019-04-04T04:08:55.252Z,0.00
2019-04-04T04:09:59.392Z,0.00
2019-04-04T04:10:54.812Z,0.00
2019-04-04T04:11:54.836Z,0.00
2019-04-04T04:12:54.856Z,0.00
2019-04-04T04:13:54.784Z,0.00
2019-04-04T04:14:55.329Z,0.00
2019-04-04T04:15:54.805Z,0.00
2019-04-04T04:16:54.815Z,0.00
2019-04-04T04:17:54.819Z,0.00
2019-04-04T04:18:55.396Z,0.00
2019-04-04T04:19:54.879Z,0.00
2019-04-04T04:20:54.876Z,0.00
2019-04-04T04:21:54.878Z,0.00
2019-04-04T04:22:54.797Z,0.00
2019-04-04T04:23:57.171Z,0.00
2019-04-04T04:24:54.770Z,0.00
2019-04-04T04:25:54.772Z,0.00
2019-04-04T04:26:54.742Z,0.00
2019-04-04T04:27:54.738Z,0.00
2019-04-04T04:28:54.865Z,0.00
2019-04-04T04:29:54.801Z,0.00
2019-04-04T04:30:54.855Z,0.00
2019-04-04T04:31:54.823Z,0.00
2019-04-04T04:32:56.995Z,0.00
2019-04-04T04:33:54.829Z,0.00
2019-04-04T04:34:54.811Z,0.00
2019-04-04T04:35:54.855Z,0.00
2019-04-04T04:36:54.770Z,0.00
2019-04-04T04:37:54.835Z,0.00
2019-04-04T04:38:58.821Z,0.00
2019-04-04T04:39:54.832Z,0.00
2019-04-04T04:40:54.861Z,0.00
2019-04-04T04:41:54.834Z,0.00
2019-04-04T04:42:54.854Z,0.00
2019-04-04T04:43:54.751Z,0.00
2019-04-04T04:44:54.909Z,0.00
2019-04-04T04:45:54.901Z,0.00
2019-04-04T04:46:54.869Z,0.00
2019-04-04T04:47:57.121Z,0.00
2019-04-04T04:48:54.816Z,0.00
2019-04-04T04:49:55.405Z,0.00
2019-04-04T04:50:54.902Z,0.00
2019-04-04T04:51:54.888Z,0.00
2019-04-04T04:52:54.901Z,0.00
2019-04-04T04:53:54.825Z,0.00
2019-04-04T04:54:55.560Z,0.00
2019-04-04T04:55:54.808Z,0.00
2019-04-04T04:56:54.891Z,0.00
2019-04-04T04:57:56.496Z,0.00
2019-04-04T04:58:55.608Z,0.00
2019-04-04T04:59:54.895Z,0.00
2019-04-04T05:00:54.971Z,0.00
2019-04-04T05:01:54.926Z,0.00
2019-04-04T05:02:54.900Z,0.00
2019-04-04T05:03:56.583Z,0.00
2019-04-04T05:04:54.920Z,0.00
2019-04-04T05:05:54.790Z,0.00
2019-04-04T05:06:54.791Z,0.00
2019-04-04T05:07:55.188Z,0.00
2019-04-04T05:08:54.889Z,0.00
2019-04-04T05:09:54.865Z,0.00
2019-04-04T05:10:54.835Z,0.00
2019-04-04T05:11:54.813Z,0.00
2019-04-04T05:12:54.872Z,0.00
2019-04-04T05:13:56.074Z,0.00
2019-04-04T05:14:54.898Z,0.00
2019-04-04T05:15:54.820Z,0.00
2019-04-04T05:16:54.900Z,0.00
2019-04-04T05:17:54.822Z,0.00
2019-04-04T05:18:54.895Z,0.00
2019-04-04T05:19:54.828Z,0.00
2019-04-04T05:20:57.279Z,0.00
2019-04-04T05:21:54.915Z,0.00
2019-04-04T05:22:54.922Z,0.00
2019-04-04T05:23:54.828Z,0.00
2019-04-04T05:25:07.460Z,0.00
2019-04-04T05:25:54.872Z,0.00
2019-04-04T05:26:54.922Z,0.00
2019-04-04T05:27:54.802Z,0.00
2019-04-04T05:28:56.919Z,0.00
2019-04-04T05:29:54.841Z,0.00
2019-04-04T05:30:54.848Z,1.00
2019-04-04T05:31:54.852Z,1.00
2019-04-04T05:32:56.544Z,1.00
2019-04-04T05:33:54.844Z,1.00
2019-04-04T05:34:54.868Z,1.00
2019-04-04T05:35:54.880Z,1.00
2019-04-04T05:36:54.840Z,1.00
2019-04-04T05:37:54.780Z,1.00
2019-04-04T05:38:54.776Z,1.00
2019-04-04T05:39:55.396Z,1.00
2019-04-04T05:40:55.488Z,1.00
2019-04-04T05:41:55.070Z,1.00
2019-04-04T05:42:54.868Z,1.00
2019-04-04T05:43:54.846Z,1.00
2019-04-04T05:44:54.844Z,1.00
2019-04-04T05:45:54.851Z,1.00
2019-04-04T05:46:54.883Z,1.00
2019-04-04T05:47:56.317Z,1.00
2019-04-04T05:48:54.931Z,1.00
2019-04-04T05:49:54.931Z,1.00
2019-04-04T05:50:54.930Z,1.00
2019-04-04T05:51:54.900Z,1.00
2019-04-04T05:52:54.872Z,1.00
2019-04-04T05:53:54.935Z,1.00
2019-04-04T05:54:54.936Z,2.00
2019-04-04T05:55:54.856Z,2.00
2019-04-04T05:56:54.939Z,2.00
2019-04-04T05:57:54.881Z,2.00
2019-04-04T05:58:54.904Z,2.00
2019-04-04T05:59:56.022Z,2.00
2019-04-04T06:00:57.577Z,2.00
2019-04-04T06:01:54.873Z,2.00
2019-04-04T06:02:54.942Z,2.00
2019-04-04T06:03:54.944Z,1.00
2019-04-04T06:04:55.322Z,1.00
2019-04-04T06:05:54.878Z,1.00
2019-04-04T06:06:55.709Z,1.00
2019-04-04T06:07:54.946Z,1.00
2019-04-04T06:08:54.899Z,1.00
2019-04-04T06:09:54.945Z,1.00
2019-04-04T06:10:54.950Z,2.00
2019-04-04T06:11:54.945Z,2.00
2019-04-04T06:12:56.324Z,2.00
2019-04-04T06:13:54.940Z,2.00
2019-04-04T06:14:54.874Z,2.00
2019-04-04T06:15:54.888Z,3.00
2019-04-04T06:16:54.945Z,3.00
2019-04-04T06:17:54.950Z,3.00
2019-04-04T06:18:54.930Z,3.00
2019-04-04T06:19:54.879Z,3.00
2019-04-04T06:20:54.954Z,3.00
2019-04-04T06:21:54.975Z,3.00
2019-04-04T06:22:54.949Z,2.00
2019-04-04T06:23:55.933Z,2.00
2019-04-04T06:24:54.951Z,2.00
2019-04-04T06:25:54.911Z,2.00
2019-04-04T06:26:54.880Z,2.00
2019-04-04T06:27:54.948Z,2.00
2019-04-04T06:28:54.964Z,2.00
2019-04-04T06:29:54.957Z,2.00
2019-04-04T06:30:54.890Z,2.00
2019-04-04T06:31:54.957Z,3.00
2019-04-04T06:32:54.890Z,3.00
2019-04-04T06:33:54.997Z,3.00
2019-04-04T06:34:56.681Z,2.00
2019-04-04T06:35:54.949Z,2.00
2019-04-04T06:36:54.882Z,2.00
2019-04-04T06:37:54.949Z,2.00
2019-04-04T06:38:54.886Z,2.00
2019-04-04T06:39:58.588Z,2.00
2019-04-04T06:40:54.877Z,2.00
2019-04-04T06:41:54.889Z,3.00
2019-04-04T06:42:54.972Z,3.00
2019-04-04T06:43:54.883Z,3.00
2019-04-04T06:44:54.956Z,3.00
2019-04-04T06:45:54.901Z,3.00
2019-04-04T06:46:54.974Z,3.00
2019-04-04T06:47:57.116Z,3.00
2019-04-04T06:48:54.968Z,3.00
2019-04-04T06:49:54.903Z,3.00
2019-04-04T06:50:54.909Z,3.00
2019-04-04T06:51:54.914Z,4.00
2019-04-04T06:52:56.530Z,4.00
2019-04-04T06:53:54.913Z,4.00
2019-04-04T06:54:55.263Z,4.00
2019-04-04T06:55:54.981Z,4.00
2019-04-04T06:56:54.983Z,4.00
2019-04-04T06:57:54.912Z,4.00
2019-04-04T06:58:54.973Z,4.00
2019-04-04T06:59:54.985Z,4.00
2019-04-04T07:00:54.977Z,4.00
2019-04-04T07:01:54.979Z,5.00
2019-04-04T07:02:55.999Z,5.00
2019-04-04T07:03:55.003Z,5.00
2019-04-04T07:04:54.925Z,5.00
2019-04-04T07:05:54.910Z,4.00
2019-04-04T07:06:54.909Z,4.00
2019-04-04T07:07:54.881Z,4.00
2019-04-04T07:08:54.920Z,4.00
2019-04-04T07:09:54.909Z,4.00
2019-04-04T07:10:58.267Z,4.00
2019-04-04T07:11:54.987Z,4.00
2019-04-04T07:13:06.219Z,4.00
2019-04-04T07:13:54.919Z,4.00
2019-04-04T07:14:54.922Z,4.00
2019-04-04T07:16:06.143Z,4.00
2019-04-04T07:16:55.084Z,4.00
2019-04-04T07:17:54.995Z,4.00
2019-04-04T07:18:54.991Z,4.00
2019-04-04T07:19:54.951Z,5.00
2019-04-04T07:20:54.992Z,5.00
2019-04-04T07:21:54.995Z,5.00
2019-04-04T07:22:55.951Z,5.00
2019-04-04T07:23:54.993Z,5.00
2019-04-04T07:24:54.994Z,5.00
2019-04-04T07:25:54.934Z,5.00
2019-04-04T07:26:54.883Z,5.00
2019-04-04T07:27:54.937Z,5.00
2019-04-04T07:28:54.999Z,5.00
2019-04-04T07:29:56.743Z,5.00
2019-04-04T07:30:55.005Z,6.00
2019-04-04T07:31:54.956Z,6.00
2019-04-04T07:32:54.929Z,6.00
2019-04-04T07:33:55.000Z,6.00
2019-04-04T07:34:54.934Z,6.00
2019-04-04T07:35:55.032Z,7.00
2019-04-04T07:36:54.936Z,6.00
2019-04-04T07:37:57.409Z,7.00
2019-04-04T07:38:55.014Z,7.00
2019-04-04T07:39:55.008Z,7.00
2019-04-04T07:40:55.011Z,8.00
2019-04-04T07:41:55.018Z,7.00
2019-04-04T07:42:54.935Z,7.00
2019-04-04T07:43:54.938Z,7.00
2019-04-04T07:44:55.159Z,7.00
2019-04-04T07:45:57.451Z,7.00
2019-04-04T07:46:54.899Z,7.00
2019-04-04T07:47:54.924Z,7.00
2019-04-04T07:48:55.088Z,7.00
2019-04-04T07:49:55.463Z,7.00
2019-04-04T07:50:58.213Z,7.00
2019-04-04T07:51:54.930Z,7.00
2019-04-04T07:52:54.941Z,8.00
2019-04-04T07:53:54.964Z,8.00
2019-04-04T07:54:54.859Z,8.00
2019-04-04T07:55:54.949Z,8.00
2019-04-04T07:56:55.033Z,9.00
2019-04-04T07:57:55.026Z,9.00
2019-04-04T07:58:54.959Z,9.00
2019-04-04T07:59:54.951Z,9.00
2019-04-04T08:00:55.020Z,9.00
2019-04-04T08:01:54.951Z,9.00
2019-04-04T08:02:55.076Z,9.00
2019-04-04T08:03:54.992Z,9.00
2019-04-04T08:04:55.030Z,9.00
2019-04-04T08:05:54.976Z,9.00
2019-04-04T08:06:54.977Z,9.00
2019-04-04T08:07:54.915Z,8.00
2019-04-04T08:08:55.022Z,8.00
2019-04-04T08:09:54.973Z,8.00
2019-04-04T08:10:55.013Z,8.00
2019-04-04T08:11:55.015Z,8.00
2019-04-04T08:12:54.984Z,8.00
2019-04-04T08:13:54.892Z,8.00
2019-04-04T08:14:54.922Z,8.00
2019-04-04T08:15:54.994Z,8.00
2019-04-04T08:16:55.044Z,8.00
2019-04-04T08:17:54.969Z,7.00
2019-04-04T08:18:55.043Z,7.00
2019-04-04T08:19:59.945Z,7.00
2019-04-04T08:20:54.968Z,7.00
2019-04-04T08:21:55.096Z,7.00
2019-04-04T08:22:54.965Z,7.00
2019-04-04T08:23:55.045Z,8.00
2019-04-04T08:24:54.970Z,8.00
2019-04-04T08:25:54.967Z,9.00
2019-04-04T08:26:54.985Z,9.00
2019-04-04T08:27:55.045Z,10.00
2019-04-04T08:28:54.972Z,9.00
2019-04-04T08:29:55.048Z,9.00
2019-04-04T08:30:54.971Z,10.00
2019-04-04T08:31:54.970Z,10.00
2019-04-04T08:32:54.996Z,11.00
2019-04-04T08:33:54.974Z,12.00
2019-04-04T08:34:54.980Z,13.00
2019-04-04T08:36:05.349Z,13.00
2019-04-04T08:36:54.984Z,15.00
2019-04-04T08:37:54.977Z,17.00
2019-04-04T08:38:55.049Z,19.00
2019-04-04T08:39:54.993Z,20.00
2019-04-04T08:40:55.049Z,21.00
2019-04-04T08:41:55.050Z,20.00
2019-04-04T08:42:54.981Z,18.00
2019-04-04T08:43:54.945Z,16.00
2019-04-04T08:44:55.065Z,14.00
2019-04-04T08:45:55.098Z,14.00
2019-04-04T08:46:55.759Z,14.00
2019-04-04T08:47:55.055Z,14.00
2019-04-04T08:48:55.055Z,15.00
2019-04-04T08:49:55.068Z,16.00
2019-04-04T08:50:55.058Z,16.00
2019-04-04T08:51:55.020Z,17.00
2019-04-04T08:52:55.072Z,17.00
2019-04-04T08:53:55.068Z,17.00
2019-04-04T08:54:54.985Z,18.00
2019-04-04T08:55:54.989Z,18.00
2019-04-04T08:56:55.020Z,19.00
2019-04-04T08:57:54.992Z,19.00
2019-04-04T08:58:54.995Z,20.00
2019-04-04T08:59:55.068Z,20.00
2019-04-04T09:00:55.069Z,18.00
2019-04-04T09:01:55.065Z,16.00
2019-04-04T09:02:54.998Z,15.00
2019-04-04T09:03:54.995Z,15.00
2019-04-04T09:04:55.004Z,16.00
2019-04-04T09:05:54.995Z,18.00
2019-04-04T09:06:55.026Z,18.00
2019-04-04T09:07:55.079Z,18.00
2019-04-04T09:08:55.001Z,19.00
2019-04-04T09:09:55.114Z,21.00
2019-04-04T09:10:55.084Z,21.00
2019-04-04T09:11:55.001Z,23.00
2019-04-04T09:12:55.004Z,24.00
2019-04-04T09:13:55.077Z,24.00
2019-04-04T09:14:55.003Z,24.00
2019-04-04T09:15:54.986Z,23.00
2019-04-04T09:16:54.984Z,20.00
2019-04-04T09:17:54.994Z,18.00
2019-04-04T09:18:54.933Z,16.00
2019-04-04T09:19:55.052Z,15.00
2019-04-04T09:20:54.997Z,14.00
2019-04-04T09:21:55.023Z,13.00
2019-04-04T09:22:54.934Z,12.00
2019-04-04T09:23:54.993Z,12.00
2019-04-04T09:24:54.935Z,12.00
2019-04-04T09:26:04.892Z,12.00
2019-04-04T09:26:55.097Z,12.00
2019-04-04T09:27:55.106Z,13.00
2019-04-04T09:28:55.017Z,14.00
2019-04-04T09:29:55.009Z,13.00
2019-04-04T09:30:55.034Z,13.00
2019-04-04T09:31:55.087Z,14.00
2019-04-04T09:32:55.086Z,14.00
2019-04-04T09:33:55.021Z,15.00
2019-04-04T09:34:55.087Z,15.00
2019-04-04T09:35:55.029Z,16.00
2019-04-04T09:36:55.088Z,17.00
2019-04-04T09:37:55.020Z,16.00
2019-04-04T09:38:55.100Z,16.00
2019-04-04T09:39:55.029Z,15.00
2019-04-04T09:40:55.029Z,13.00
2019-04-04T09:41:55.148Z,13.00
2019-04-04T09:42:55.093Z,14.00
2019-04-04T09:43:55.023Z,15.00
2019-04-04T09:44:55.093Z,14.00
2019-04-04T09:45:55.095Z,14.00
2019-04-04T09:47:04.848Z,13.00
2019-04-04T09:47:55.098Z,13.00
2019-04-04T09:48:55.107Z,13.00
2019-04-04T09:49:55.027Z,15.00
2019-04-04T09:50:55.027Z,15.00
2019-04-04T09:51:55.045Z,13.00
2019-04-04T09:52:55.041Z,13.00
2019-04-04T09:53:55.105Z,14.00
2019-04-04T09:54:55.039Z,14.00
2019-04-04T09:55:55.042Z,13.00
2019-04-04T09:56:55.120Z,12.00
2019-04-04T09:57:55.062Z,12.00
2019-04-04T09:58:55.244Z,12.00
2019-04-04T09:59:55.107Z,13.00
2019-04-04T10:00:55.041Z,12.00
2019-04-04T10:01:55.040Z,11.00
2019-04-04T10:02:55.106Z,13.00
2019-04-04T10:03:55.172Z,13.00
2019-04-04T10:04:55.106Z,12.00
2019-04-04T10:05:55.363Z,11.00
2019-04-04T10:06:55.093Z,11.00
2019-04-04T10:07:55.099Z,12.00
2019-04-04T10:08:55.082Z,12.00
2019-04-04T10:09:55.070Z,12.00
2019-04-04T10:10:54.972Z,12.00
2019-04-04T10:11:54.973Z,11.00
2019-04-04T10:12:55.099Z,11.00
2019-04-04T10:13:55.035Z,10.00
2019-04-04T10:14:55.010Z,11.00
2019-04-04T10:15:55.097Z,11.00
2019-04-04T10:16:55.094Z,12.00
2019-04-04T10:17:55.063Z,12.00
2019-04-04T10:18:55.062Z,11.00
2019-04-04T10:19:55.102Z,10.00
2019-04-04T10:20:55.138Z,10.00
2019-04-04T10:21:55.107Z,9.00
2019-04-04T10:22:55.008Z,9.00
2019-04-04T10:23:55.081Z,10.00
2019-04-04T10:24:55.037Z,10.00
2019-04-04T10:25:54.989Z,11.00
2019-04-04T10:26:55.054Z,11.00
2019-04-04T10:27:55.041Z,10.00
2019-04-04T10:28:55.010Z,10.00
2019-04-04T10:29:55.101Z,10.00
2019-04-04T10:30:54.989Z,11.00
2019-04-04T10:31:54.996Z,11.00
2019-04-04T10:32:55.007Z,12.00
2019-04-04T10:33:54.997Z,12.00
2019-04-04T10:34:55.014Z,12.00
2019-04-04T10:35:55.117Z,11.00
2019-04-04T10:36:55.048Z,11.00
2019-04-04T10:37:55.053Z,13.00
2019-04-04T10:38:55.062Z,12.00
2019-04-04T10:39:55.046Z,12.00
2019-04-04T10:40:55.050Z,14.00
2019-04-04T10:41:55.052Z,15.00
2019-04-04T10:42:55.137Z,14.00
2019-04-04T10:43:55.180Z,13.00
2019-04-04T10:44:55.058Z,14.00
2019-04-04T10:45:55.064Z,15.00
2019-04-04T10:46:55.139Z,15.00
2019-04-04T10:47:55.069Z,15.00
2019-04-04T10:48:55.073Z,15.00
2019-04-04T10:49:55.148Z,15.00
2019-04-04T10:50:55.152Z,15.00
2019-04-04T10:51:55.075Z,15.00
2019-04-04T10:52:55.141Z,14.00
2019-04-04T10:53:55.146Z,14.00
2019-04-04T10:54:55.071Z,13.00
2019-04-04T10:55:55.080Z,12.00
2019-04-04T10:56:55.075Z,11.00
2019-04-04T10:57:55.079Z,11.00
2019-04-04T10:58:55.091Z,11.00
2019-04-04T10:59:55.147Z,10.00
2019-04-04T11:00:55.149Z,10.00
2019-04-04T11:01:55.177Z,11.00
2019-04-04T11:02:55.154Z,11.00
2019-04-04T11:03:55.159Z,9.00
2019-04-04T11:04:55.080Z,7.00
2019-04-04T11:05:55.142Z,6.00
2019-04-04T11:06:55.116Z,5.00
2019-04-04T11:07:56.783Z,5.00
2019-04-04T11:08:55.084Z,5.00
2019-04-04T11:09:55.057Z,5.00
2019-04-04T11:10:55.056Z,6.00
2019-04-04T11:11:55.104Z,6.00
2019-04-04T11:12:55.146Z,7.00
2019-04-04T11:13:55.092Z,7.00
2019-04-04T11:14:55.075Z,7.00
2019-04-04T11:15:55.167Z,7.00
2019-04-04T11:16:55.132Z,7.00
2019-04-04T11:17:55.119Z,7.00
2019-04-04T11:18:55.089Z,7.00
2019-04-04T11:19:55.119Z,6.00
2019-04-04T11:20:55.093Z,6.00
2019-04-04T11:21:55.114Z,6.00
2019-04-04T11:22:55.097Z,6.00
2019-04-04T11:23:55.107Z,6.00
2019-04-04T11:24:55.102Z,6.00
2019-04-04T11:25:55.041Z,5.00
2019-04-04T11:26:55.058Z,5.00
2019-04-04T11:27:55.149Z,6.00
2019-04-04T11:28:55.089Z,6.00
2019-04-04T11:29:55.152Z,6.00
2019-04-04T11:30:55.103Z,6.00
2019-04-04T11:31:55.037Z,6.00
2019-04-04T11:32:55.070Z,6.00
2019-04-04T11:33:55.153Z,7.00
2019-04-04T11:34:55.165Z,7.00
2019-04-04T11:35:55.165Z,7.00
2019-04-04T11:36:55.197Z,7.00
2019-04-04T11:37:55.162Z,6.00
2019-04-04T11:38:55.163Z,6.00
2019-04-04T11:39:55.379Z,6.00
2019-04-04T11:40:55.167Z,6.00
2019-04-04T11:41:55.170Z,6.00
2019-04-04T11:42:55.174Z,6.00
2019-04-04T11:43:55.168Z,6.00
2019-04-04T11:44:55.127Z,5.00
2019-04-04T11:45:55.104Z,5.00
2019-04-04T11:46:55.161Z,4.00
2019-04-04T11:47:55.077Z,4.00
2019-04-04T11:48:55.145Z,4.00
2019-04-04T11:49:55.055Z,4.00
2019-04-04T11:50:55.076Z,4.00
2019-04-04T11:51:55.167Z,4.00
2019-04-04T11:52:55.045Z,4.00
2019-04-04T11:53:55.188Z,4.00
2019-04-04T11:54:55.057Z,5.00
2019-04-04T11:55:55.047Z,5.00
2019-04-04T11:56:55.102Z,5.00
2019-04-04T11:57:55.109Z,5.00
2019-04-04T11:58:55.111Z,5.00
2019-04-04T11:59:55.143Z,5.00
2019-04-04T12:00:55.112Z,5.00
2019-04-04T12:01:55.139Z,6.00
2019-04-04T12:02:55.080Z,6.00
2019-04-04T12:03:55.157Z,6.00
2019-04-04T12:04:57.679Z,6.00
2019-04-04T12:05:55.205Z,7.00
2019-04-04T12:06:55.129Z,7.00
2019-04-04T12:07:55.198Z,8.00
2019-04-04T12:08:55.140Z,8.00
2019-04-04T12:10:06.759Z,9.00
2019-04-04T12:10:55.212Z,9.00
2019-04-04T12:11:55.163Z,9.00
2019-04-04T12:12:55.129Z,9.00
2019-04-04T12:13:55.150Z,9.00
2019-04-04T12:14:55.200Z,9.00
2019-04-04T12:15:55.094Z,9.00
2019-04-04T12:16:55.202Z,9.00
2019-04-04T12:17:55.205Z,9.00
2019-04-04T12:18:55.212Z,10.00
2019-04-04T12:19:55.200Z,10.00
2019-04-04T12:20:55.206Z,10.00
2019-04-04T12:21:55.140Z,9.00
2019-04-04T12:22:55.138Z,8.00
2019-04-04T12:23:55.156Z,9.00
2019-04-04T12:24:55.212Z,9.00
2019-04-04T12:25:55.140Z,8.00
2019-04-04T12:26:55.142Z,8.00
2019-04-04T12:27:55.147Z,9.00
2019-04-04T12:28:55.213Z,10.00
2019-04-04T12:29:55.213Z,11.00
2019-04-04T12:30:55.222Z,11.00
2019-04-04T12:31:55.245Z,11.00
2019-04-04T12:32:55.148Z,12.00
2019-04-04T12:33:55.144Z,12.00
2019-04-04T12:34:55.201Z,11.00
2019-04-04T12:35:55.214Z,10.00
2019-04-04T12:36:55.228Z,10.00
2019-04-04T12:37:55.149Z,10.00
2019-04-04T12:38:55.217Z,10.00
2019-04-04T12:39:55.153Z,10.00
2019-04-04T12:40:55.221Z,10.00
2019-04-04T12:41:55.153Z,10.00
2019-04-04T12:42:55.152Z,10.00
2019-04-04T12:43:55.219Z,10.00
2019-04-04T12:44:55.155Z,11.00
2019-04-04T12:45:55.154Z,13.00
2019-04-04T12:46:55.226Z,14.00
2019-04-04T12:47:55.153Z,15.00
2019-04-04T12:48:55.167Z,15.00
2019-04-04T12:49:55.242Z,15.00
2019-04-04T12:50:55.230Z,13.00
2019-04-04T12:51:55.238Z,12.00
2019-04-04T12:52:55.162Z,11.00
2019-04-04T12:53:55.163Z,11.00
2019-04-04T12:54:55.161Z,10.00
2019-04-04T12:55:55.162Z,10.00
2019-04-04T12:56:55.163Z,11.00
2019-04-04T12:57:55.231Z,10.00
2019-04-04T12:58:55.231Z,9.00
2019-04-04T12:59:55.177Z,9.00
2019-04-04T13:00:55.237Z,9.00
2019-04-04T13:01:55.239Z,9.00
2019-04-04T13:02:55.243Z,8.00
2019-04-04T13:03:55.240Z,8.00
2019-04-04T13:04:55.243Z,8.00
2019-04-04T13:05:55.168Z,7.00
2019-04-04T13:06:55.228Z,7.00
2019-04-04T13:07:55.172Z,7.00
2019-04-04T13:08:55.231Z,7.00
2019-04-04T13:09:55.235Z,7.00
2019-04-04T13:10:55.157Z,6.00
2019-04-04T13:11:55.232Z,6.00
2019-04-04T13:12:55.168Z,6.00